Time;durP1;ratioP1;P1;durP2;ratioP2;P2;SDS_P1;SDS_P2;PMS_P1;PMS_P2;Temp;Humidity;BMP_temperature;BMP_pressure;BME280_temperature;BME280_humidity;BME280_pressure;Samples;Min_cycle;Max_cycle;Signal;HPM_P1;HPM_P2
2021/08/09 00:01:13;;;;;;;2.75;0.90;;;23.50;96.70;;;;;;5083317;28;20481;-72
2021/08/09 00:03:42;;;;;;;4.40;1.02;;;23.60;96.70;;;;;;5081043;28;20391;-72
2021/08/09 00:06:12;;;;;;;2.00;0.77;;;23.90;96.70;;;;;;5084212;28;20409;-72
2021/08/09 00:08:42;;;;;;;2.42;0.90;;;24.00;96.70;;;;;;5082486;28;20127;-73
2021/08/09 00:11:11;;;;;;;2.67;0.70;;;23.90;96.70;;;;;;5079961;28;20946;-72
2021/08/09 00:13:41;;;;;;;3.17;0.73;;;23.90;96.70;;;;;;5079464;28;20418;-72
2021/08/09 00:16:10;;;;;;;2.85;0.88;;;23.90;96.70;;;;;;5086403;27;20044;-72
2021/08/09 00:18:46;;;;;;;3.90;1.00;;;23.80;96.70;;;;;;5081319;28;20546;-72
2021/08/09 00:21:17;;;;;;;2.97;1.02;;;23.80;96.70;;;;;;5084954;28;20584;-73
2021/08/09 00:23:47;;;;;;;1.92;0.88;;;23.80;96.70;;;;;;5081354;28;20048;-72
2021/08/09 00:26:19;;;;;;;2.42;0.77;;;23.70;96.70;;;;;;5068018;28;20131;-73
2021/08/09 00:28:49;;;;;;;3.60;1.00;;;23.60;96.70;;;;;;5081261;28;20043;-72
2021/08/09 00:31:19;;;;;;;4.55;1.10;;;23.60;96.70;;;;;;5068213;28;20044;-72
2021/08/09 00:33:50;;;;;;;4.13;0.88;;;23.60;96.70;;;;;;5075051;28;20051;-72
2021/08/09 00:36:20;;;;;;;4.15;0.73;;;23.70;96.70;;;;;;5079769;28;20545;-72
2021/08/09 00:38:51;;;;;;;2.65;0.90;;;23.60;96.70;;;;;;5084159;28;20143;-72
2021/08/09 00:41:20;;;;;;;2.67;0.82;;;23.60;96.70;;;;;;5079862;28;20071;-72
2021/08/09 00:43:50;;;;;;;4.10;0.90;;;23.50;96.70;;;;;;5080598;28;20043;-72
2021/08/09 00:46:19;;;;;;;3.25;1.00;;;23.40;96.70;;;;;;5081855;28;20425;-72
2021/08/09 00:48:53;;;;;;;3.22;1.00;;;23.40;96.70;;;;;;5070257;28;20040;-73
2021/08/09 00:51:23;;;;;;;3.60;0.82;;;23.40;96.70;;;;;;5078327;28;20297;-72
2021/08/09 00:53:56;;;;;;;3.03;0.95;;;23.50;96.70;;;;;;5067658;28;20048;-72
2021/08/09 00:56:24;;;;;;;3.65;1.17;;;23.50;96.70;;;;;;5083287;28;20544;-73
2021/08/09 00:58:54;;;;;;;3.63;0.80;;;23.50;96.70;;;;;;5080435;28;20157;-72
2021/08/09 01:01:23;;;;;;;2.83;0.82;;;23.50;96.70;;;;;;5082274;28;20048;-73
2021/08/09 01:03:55;;;;;;;3.10;0.90;;;23.50;96.70;;;;;;5082437;28;20149;-72
2021/08/09 01:06:24;;;;;;;2.55;0.77;;;23.40;96.70;;;;;;5066449;28;20045;-72
2021/08/09 01:09:02;;;;;;;3.90;1.15;;;23.40;96.70;;;;;;5083523;28;20048;-72
2021/08/09 01:11:39;;;;;;;3.22;1.00;;;23.30;96.70;;;;;;5081159;28;20122;-72
2021/08/09 01:14:22;;;;;;;3.30;1.08;;;23.30;96.70;;;;;;5083272;28;20059;-72
2021/08/09 01:16:51;;;;;;;2.03;0.90;;;23.40;96.70;;;;;;5080872;28;20131;-72
2021/08/09 01:19:42;;;;;;;3.28;0.88;;;23.30;96.70;;;;;;5066447;28;20089;-72
2021/08/09 01:22:31;;;;;;;2.17;1.00;;;23.30;96.70;;;;;;5080742;28;20106;-73
2021/08/09 01:25:12;;;;;;;2.75;0.70;;;23.50;96.70;;;;;;5081556;28;20101;-73
2021/08/09 01:27:46;;;;;;;4.38;1.10;;;23.40;96.70;;;;;;5080770;28;20079;-72
2021/08/09 01:30:15;;;;;;;3.70;0.68;;;23.30;96.70;;;;;;5080908;28;20077;-72
2021/08/09 01:32:46;;;;;;;5.28;1.25;;;23.20;96.70;;;;;;5084984;28;20044;-73
2021/08/09 01:35:18;;;;;;;2.17;0.80;;;23.00;96.70;;;;;;5079426;28;20043;-72
2021/08/09 01:37:51;;;;;;;2.72;0.75;;;22.90;96.70;;;;;;5080623;28;20059;-73
2021/08/09 01:40:29;;;;;;;2.15;0.98;;;23.00;96.70;;;;;;5083484;28;20044;-72
2021/08/09 01:43:00;;;;;;;2.47;0.85;;;23.10;96.70;;;;;;5078568;28;20055;-73
2021/08/09 01:45:31;;;;;;;2.17;0.80;;;23.10;96.70;;;;;;5063784;28;20045;-73
2021/08/09 01:48:02;;;;;;;3.47;1.05;;;23.10;96.70;;;;;;5083311;28;20048;-72
2021/08/09 01:50:38;;;;;;;5.07;0.90;;;23.00;96.70;;;;;;5079525;28;20509;-72
2021/08/09 01:53:10;;;;;;;5.00;1.30;;;23.20;96.70;;;;;;5089315;28;20052;-72
2021/08/09 01:56:15;;;;;;;4.40;1.10;;;23.20;96.70;;;;;;5079325;28;20044;-72
2021/08/09 01:58:45;;;;;;;2.67;0.70;;;23.10;96.70;;;;;;5073055;28;20043;-72
2021/08/09 02:01:14;;;;;;;5.40;1.20;;;23.10;96.70;;;;;;5083590;28;20048;-72
2021/08/09 02:03:42;;;;;;;4.28;1.00;;;23.10;96.70;;;;;;5078294;28;20047;-72
2021/08/09 02:07:06;;;;;;;3.78;1.30;;;23.00;96.70;;;;;;5082225;28;20417;-72
2021/08/09 02:09:35;;;;;;;2.75;1.00;;;22.80;96.70;;;;;;5078744;28;20048;-71
2021/08/09 02:12:07;;;;;;;3.13;1.13;;;22.70;96.70;;;;;;5064639;28;20032;-72
2021/08/09 02:14:49;;;;;;;3.45;0.70;;;22.80;96.70;;;;;;5080754;28;20052;-72
2021/08/09 02:17:19;;;;;;;;;;;22.70;96.70;;;;;;5063137;28;20071;-71
2021/08/09 02:19:55;;;;;;;2.85;0.90;;;22.80;96.70;;;;;;5075638;28;19931;-71
2021/08/09 02:22:32;;;;;;;3.85;0.82;;;22.70;96.70;;;;;;5079867;28;20069;-72
2021/08/09 02:25:07;;;;;;;1.35;0.73;;;22.70;96.70;;;;;;5081514;28;20502;-72
2021/08/09 02:27:43;;;;;;;6.45;1.05;;;22.70;96.70;;;;;;5080274;28;20491;-72
2021/08/09 02:30:17;;;;;;;3.00;0.90;;;22.70;96.70;;;;;;5058052;28;20418;-71
2021/08/09 02:32:48;;;;;;;2.22;0.70;;;22.70;96.70;;;;;;5073159;28;20050;-72
2021/08/09 02:35:19;;;;;;;3.28;0.80;;;22.70;96.70;;;;;;5082471;28;20169;-71
2021/08/09 02:37:51;;;;;;;4.95;1.35;;;22.50;96.70;;;;;;5081514;28;20405;-72
2021/08/09 02:40:20;;;;;;;3.63;0.85;;;22.30;96.70;;;;;;5077907;28;20380;-71
2021/08/09 02:42:50;;;;;;;1.95;0.82;;;22.20;96.70;;;;;;5081207;28;20418;-72
2021/08/09 02:45:21;;;;;;;2.25;0.90;;;22.10;96.70;;;;;;5078520;28;20132;-71
2021/08/09 02:47:52;;;;;;;3.80;1.00;;;22.00;96.70;;;;;;5074590;28;20043;-72
2021/08/09 02:50:22;;;;;;;4.07;1.58;;;22.00;96.70;;;;;;5081537;28;20394;-72
2021/08/09 02:52:53;;;;;;;2.60;1.08;;;21.90;96.70;;;;;;5079374;28;20059;-72
2021/08/09 02:55:25;;;;;;;2.60;1.10;;;21.80;96.70;;;;;;5078252;28;20051;-72
2021/08/09 02:57:56;;;;;;;7.40;1.30;;;22.00;96.70;;;;;;5080886;28;20078;-72
2021/08/09 03:00:28;;;;;;;2.75;1.02;;;22.10;96.70;;;;;;5081510;28;20052;-72
2021/08/09 03:02:58;;;;;;;2.40;0.95;;;22.20;96.70;;;;;;5059173;28;20044;-72
2021/08/09 03:05:31;;;;;;;4.13;0.98;;;22.40;96.70;;;;;;5080721;28;20052;-72
2021/08/09 03:08:01;;;;;;;3.30;1.00;;;22.40;96.70;;;;;;5079953;28;20494;-72
2021/08/09 03:10:30;;;;;;;1.67;0.98;;;22.20;96.70;;;;;;5074384;28;20516;-71
2021/08/09 03:12:59;;;;;;;3.90;1.10;;;22.00;96.70;;;;;;5081375;28;20056;-71
2021/08/09 03:15:30;;;;;;;3.17;1.00;;;21.70;96.70;;;;;;5071370;28;20036;-72
2021/08/09 03:18:00;;;;;;;3.33;0.98;;;21.70;96.70;;;;;;5077921;28;20048;-71
2021/08/09 03:20:30;;;;;;;4.57;1.13;;;21.80;96.70;;;;;;5076118;28;20186;-72
2021/08/09 03:23:00;;;;;;;2.78;1.15;;;22.00;96.70;;;;;;5076373;28;20462;-72
2021/08/09 03:25:30;;;;;;;4.45;1.05;;;22.00;96.70;;;;;;5080193;28;20048;-71
2021/08/09 03:27:59;;;;;;;5.60;1.50;;;22.10;96.70;;;;;;5081560;28;20132;-71
2021/08/09 03:30:30;;;;;;;1.67;1.08;;;22.20;96.70;;;;;;5077203;28;20040;-71
2021/08/09 03:32:59;;;;;;;4.95;1.23;;;22.20;96.70;;;;;;5075066;28;20127;-71
2021/08/09 03:35:36;;;;;;;2.13;0.82;;;22.20;96.70;;;;;;5079533;28;20432;-71
2021/08/09 03:38:19;;;;;;;3.10;1.02;;;22.20;96.70;;;;;;5072556;28;20044;-72
2021/08/09 03:41:00;;;;;;;3.60;1.10;;;22.30;96.70;;;;;;5078990;28;20553;-71
2021/08/09 03:43:37;;;;;;;3.60;0.90;;;22.20;96.70;;;;;;5082308;28;20043;-71
2021/08/09 03:46:10;;;;;;;3.22;0.93;;;22.00;96.70;;;;;;5073791;28;20134;-70
2021/08/09 03:48:39;;;;;;;5.50;1.20;;;22.00;96.70;;;;;;5079853;28;20180;-69
2021/08/09 03:51:08;;;;;;;3.05;1.17;;;22.10;96.70;;;;;;5074359;28;20040;-70
2021/08/09 03:53:38;;;;;;;1.45;0.70;;;22.00;96.70;;;;;;5077944;28;20352;-70
2021/08/09 03:56:08;;;;;;;3.00;1.35;;;22.00;96.70;;;;;;5071994;28;20076;-70
2021/08/09 03:58:37;;;;;;;3.53;1.20;;;21.80;96.70;;;;;;5073863;28;20052;-71
2021/08/09 04:01:07;;;;;;;3.28;0.90;;;21.50;96.70;;;;;;5076785;28;20041;-70
2021/08/09 04:03:37;;;;;;;2.67;1.00;;;21.30;96.70;;;;;;5074421;28;20041;-71
2021/08/09 04:06:06;;;;;;;1.85;0.88;;;21.20;96.70;;;;;;5080383;28;20074;-70
2021/08/09 04:08:36;;;;;;;2.17;0.85;;;21.10;96.70;;;;;;5079847;28;20097;-71
2021/08/09 04:11:04;;;;;;;3.13;1.10;;;21.20;96.70;;;;;;5076075;28;20135;-70
2021/08/09 04:13:34;;;;;;;2.35;0.90;;;21.20;96.70;;;;;;5080372;28;20074;-70
2021/08/09 04:16:03;;;;;;;4.40;0.88;;;21.20;96.70;;;;;;5077538;28;20904;-70
2021/08/09 04:18:32;;;;;;;2.05;0.98;;;21.30;96.70;;;;;;5077408;28;20048;-70
2021/08/09 04:21:02;;;;;;;1.30;0.70;;;21.40;96.70;;;;;;5078645;28;20514;-71
2021/08/09 04:23:30;;;;;;;3.20;0.88;;;21.60;96.70;;;;;;5079865;28;20050;-70
2021/08/09 04:25:59;;;;;;;3.20;0.90;;;21.60;96.70;;;;;;5076316;28;20050;-70
2021/08/09 04:28:27;;;;;;;3.97;0.77;;;21.70;96.70;;;;;;5057268;28;20052;-70
2021/08/09 04:30:56;;;;;;;2.97;1.13;;;21.70;96.70;;;;;;5066452;28;20036;-71
2021/08/09 04:33:24;;;;;;;2.53;0.90;;;21.70;96.70;;;;;;5080347;28;20048;-70
2021/08/09 04:35:59;;;;;;;1.95;0.77;;;21.70;96.70;;;;;;5085760;28;20136;-71
2021/08/09 04:38:29;;;;;;;3.20;0.90;;;21.60;96.70;;;;;;5085974;28;20131;-70
2021/08/09 04:40:58;;;;;;;4.40;0.82;;;21.80;96.70;;;;;;5084481;28;20051;-70
2021/08/09 04:43:26;;;;;;;3.15;1.17;;;21.90;96.70;;;;;;5081384;28;20048;-70
2021/08/09 04:45:55;;;;;;;4.13;0.90;;;21.90;96.70;;;;;;5080708;28;20071;-70
2021/08/09 04:48:26;;;;;;;3.42;1.23;;;21.70;96.70;;;;;;5081649;28;20374;-70
2021/08/09 04:50:55;;;;;;;1.83;0.90;;;21.90;96.70;;;;;;5100998;28;20399;-70
2021/08/09 04:53:23;;;;;;;4.68;1.13;;;21.90;96.70;;;;;;5061315;28;20382;-71
2021/08/09 04:55:53;;;;;;;2.58;1.00;;;21.80;96.70;;;;;;5076727;28;20568;-70
2021/08/09 04:58:22;;;;;;;2.50;1.00;;;21.90;96.70;;;;;;5062202;28;20053;-70
2021/08/09 05:00:51;;;;;;;1.92;0.70;;;22.00;96.70;;;;;;5081614;28;20058;-70
2021/08/09 05:03:20;;;;;;;6.38;1.27;;;22.00;96.70;;;;;;5083688;28;20036;-70
2021/08/09 05:05:49;;;;;;;2.83;1.00;;;21.90;96.70;;;;;;5075733;28;20032;-71
2021/08/09 05:08:18;;;;;;;3.05;0.95;;;21.90;96.70;;;;;;5081363;28;20039;-70
2021/08/09 05:10:46;;;;;;;3.67;1.20;;;21.90;96.70;;;;;;5072912;28;20029;-70
2021/08/09 05:13:16;;;;;;;3.05;0.82;;;22.00;96.70;;;;;;5080242;28;20043;-71
2021/08/09 05:15:45;;;;;;;2.28;1.10;;;21.90;96.70;;;;;;5080781;28;20049;-70
2021/08/09 05:18:14;;;;;;;2.95;1.00;;;21.90;96.70;;;;;;5083332;28;20047;-71
2021/08/09 05:20:43;;;;;;;2.35;0.88;;;21.90;96.70;;;;;;5081299;28;20067;-69
2021/08/09 05:23:14;;;;;;;3.22;1.10;;;21.80;96.70;;;;;;5082139;28;20720;-71
2021/08/09 05:25:56;;;;;;;3.80;1.25;;;21.80;96.70;;;;;;5077483;28;20043;-72
2021/08/09 05:28:26;;;;;;;3.85;1.15;;;21.70;96.70;;;;;;5082437;28;20048;-74
2021/08/09 05:30:55;;;;;;;3.67;1.00;;;21.90;96.70;;;;;;5075605;28;20203;-72
2021/08/09 05:33:26;;;;;;;2.55;1.00;;;22.00;96.70;;;;;;5082242;28;20122;-72
2021/08/09 05:35:54;;;;;;;2.55;1.05;;;22.20;96.70;;;;;;5078877;28;20147;-72
2021/08/09 05:38:22;;;;;;;1.52;0.75;;;22.30;96.70;;;;;;5082854;28;20519;-72
2021/08/09 05:40:51;;;;;;;2.78;1.10;;;22.30;96.70;;;;;;5079266;28;20520;-72
2021/08/09 05:43:19;;;;;;;3.45;1.08;;;22.00;96.70;;;;;;5082639;28;20554;-71
2021/08/09 05:45:49;;;;;;;5.05;1.25;;;22.20;96.70;;;;;;5076893;28;20420;-72
2021/08/09 05:48:18;;;;;;;3.28;1.20;;;22.30;96.70;;;;;;5079433;28;20041;-72
2021/08/09 05:50:48;;;;;;;4.03;0.93;;;22.30;96.70;;;;;;5078424;28;20049;-72
2021/08/09 05:53:17;;;;;;;2.45;1.05;;;22.30;96.70;;;;;;5075323;28;20040;-71
2021/08/09 05:55:45;;;;;;;5.20;1.00;;;22.30;96.70;;;;;;5076171;28;20067;-72
2021/08/09 05:58:14;;;;;;;2.83;1.42;;;22.40;96.70;;;;;;5076239;28;20041;-71
2021/08/09 06:00:42;;;;;;;5.22;0.95;;;22.50;96.70;;;;;;5060957;28;20043;-72
2021/08/09 06:03:19;;;;;;;2.70;1.10;;;22.60;96.70;;;;;;5049519;28;20044;-72
2021/08/09 06:05:59;;;;;;;3.75;0.98;;;22.60;96.70;;;;;;5078584;28;20067;-72
2021/08/09 06:08:34;;;;;;;1.85;0.85;;;22.50;96.70;;;;;;5078639;28;20086;-72
2021/08/09 06:11:02;;;;;;;2.95;1.30;;;22.50;96.70;;;;;;5076692;28;20401;-73
2021/08/09 06:13:32;;;;;;;3.97;1.10;;;22.70;96.70;;;;;;5096714;28;20604;-73
2021/08/09 06:16:01;;;;;;;5.80;1.10;;;22.70;96.70;;;;;;5082048;28;20044;-73
2021/08/09 06:18:33;;;;;;;5.03;1.30;;;22.80;96.70;;;;;;5077875;28;20059;-73
2021/08/09 06:21:04;;;;;;;2.13;0.75;;;22.60;96.70;;;;;;5099401;28;20129;-73
2021/08/09 06:23:33;;;;;;;4.97;1.10;;;22.70;96.70;;;;;;5079247;28;20501;-73
2021/08/09 06:26:01;;;;;;;3.08;0.70;;;22.80;96.70;;;;;;5062099;28;20501;-73
2021/08/09 06:28:35;;;;;;;3.08;0.70;;;22.80;96.70;;;;;;5082956;28;20085;-73
2021/08/09 06:31:06;;;;;;;3.78;1.10;;;22.80;96.70;;;;;;5082603;28;20049;-74
2021/08/09 06:33:36;;;;;;;5.15;0.90;;;22.80;96.70;;;;;;5074918;28;20143;-73
2021/08/09 06:36:04;;;;;;;4.97;1.08;;;22.90;96.70;;;;;;5081070;28;20091;-72
2021/08/09 06:38:34;;;;;;;1.88;0.75;;;23.00;96.70;;;;;;5081827;28;20048;-71
2021/08/09 06:41:04;;;;;;;3.33;0.90;;;23.00;96.70;;;;;;5079722;28;20044;-72
2021/08/09 06:43:34;;;;;;;3.17;1.10;;;23.10;96.70;;;;;;5081458;28;20354;-73
2021/08/09 06:46:12;;;;;;;2.25;1.05;;;23.10;96.70;;;;;;5081400;28;20075;-71
2021/08/09 06:48:42;;;;;;;5.00;1.40;;;23.20;96.70;;;;;;5080299;28;20040;-71
2021/08/09 06:51:11;;;;;;;3.28;1.20;;;23.30;96.70;;;;;;5075973;28;20052;-71
2021/08/09 06:53:40;;;;;;;3.35;1.10;;;23.30;96.70;;;;;;5084257;28;20523;-73
2021/08/09 06:56:15;;;;;;;5.90;1.60;;;23.20;96.70;;;;;;5080064;28;20079;-72
2021/08/09 06:58:44;;;;;;;3.33;1.05;;;23.30;96.70;;;;;;5064544;28;20043;-73
2021/08/09 07:01:13;;;;;;;4.03;1.30;;;23.40;96.70;;;;;;5061319;28;20182;-72
2021/08/09 07:03:46;;;;;;;3.05;0.90;;;23.50;96.70;;;;;;5077085;28;20040;-73
2021/08/09 07:06:19;;;;;;;4.53;1.20;;;23.60;96.70;;;;;;5053369;28;20048;-73
2021/08/09 07:08:49;;;;;;;4.35;0.93;;;23.70;96.70;;;;;;5080266;28;20160;-72
2021/08/09 07:11:18;;;;;;;3.03;0.93;;;23.80;96.70;;;;;;5077846;28;20127;-73
2021/08/09 07:13:48;;;;;;;3.25;1.20;;;23.80;96.70;;;;;;5074298;28;20048;-73
2021/08/09 07:16:16;;;;;;;5.07;1.30;;;23.80;96.70;;;;;;5060369;28;20051;-72
2021/08/09 07:18:47;;;;;;;3.13;1.20;;;23.80;96.70;;;;;;5058985;28;20130;-72
2021/08/09 07:21:16;;;;;;;3.17;1.20;;;23.90;96.70;;;;;;5077666;28;20534;-72
2021/08/09 07:23:44;;;;;;;3.13;1.40;;;24.00;96.70;;;;;;5068892;28;20067;-72
2021/08/09 07:26:13;;;;;;;4.45;1.38;;;24.10;96.70;;;;;;5071910;28;20075;-72
2021/08/09 07:28:42;;;;;;;5.25;1.13;;;24.20;96.30;;;;;;5082568;28;20036;-72
2021/08/09 07:31:10;;;;;;;3.97;1.05;;;24.20;96.40;;;;;;5060422;28;20506;-72
2021/08/09 07:33:39;;;;;;;3.78;0.98;;;24.20;96.10;;;;;;5082121;28;20305;-72
2021/08/09 07:36:09;;;;;;;5.75;0.98;;;24.20;95.80;;;;;;5078437;28;20506;-73
2021/08/09 07:38:37;;;;;;;6.97;1.35;;;24.20;95.40;;;;;;5084529;28;20044;-72
2021/08/09 07:41:05;;;;;;;5.10;1.25;;;24.30;94.30;;;;;;5076809;28;20059;-73
2021/08/09 07:43:34;;;;;;;4.97;1.50;;;24.40;94.10;;;;;;5077631;28;20059;-73
2021/08/09 07:46:03;;;;;;;3.95;1.20;;;24.50;93.80;;;;;;5079100;28;20072;-74
2021/08/09 07:48:31;;;;;;;3.15;1.13;;;24.60;93.70;;;;;;5079343;28;20055;-72
2021/08/09 07:50:59;;;;;;;5.78;0.88;;;24.70;93.40;;;;;;5057804;28;20036;-72
2021/08/09 07:53:29;;;;;;;4.65;0.82;;;24.70;93.00;;;;;;5072728;28;20410;-72
2021/08/09 07:55:58;;;;;;;4.10;1.13;;;24.80;93.40;;;;;;5080734;28;20044;-72
2021/08/09 07:58:27;;;;;;;2.03;0.90;;;24.90;93.20;;;;;;5080837;28;20055;-72
2021/08/09 08:00:58;;;;;;;1.85;1.02;;;25.00;92.80;;;;;;5080635;28;20040;-72
2021/08/09 08:03:27;;;;;;;4.22;1.20;;;25.10;92.30;;;;;;5078440;28;20031;-72
2021/08/09 08:05:55;;;;;;;4.60;0.95;;;25.20;92.20;;;;;;5057971;28;20051;-72
2021/08/09 08:08:23;;;;;;;5.72;1.00;;;25.20;92.20;;;;;;5076848;28;20064;-72
2021/08/09 08:10:53;;;;;;;4.28;1.00;;;25.40;92.30;;;;;;5076940;28;20509;-72
2021/08/09 08:13:21;;;;;;;2.78;0.95;;;25.50;92.10;;;;;;5083985;28;20043;-73
2021/08/09 08:15:51;;;;;;;4.32;1.30;;;25.60;91.20;;;;;;5086053;28;20519;-72
2021/08/09 08:18:20;;;;;;;3.50;1.10;;;25.70;91.20;;;;;;5082628;28;20063;-72
2021/08/09 08:20:48;;;;;;;4.47;1.00;;;25.80;91.40;;;;;;5082809;28;20085;-72
2021/08/09 08:23:23;;;;;;;3.72;0.88;;;25.80;89.90;;;;;;5079048;28;20076;-72
2021/08/09 08:25:52;;;;;;;4.25;0.95;;;25.80;89.30;;;;;;5083426;28;20411;-72
2021/08/09 08:28:21;;;;;;;2.72;1.05;;;25.90;89.70;;;;;;5081552;28;20036;-72
2021/08/09 08:30:52;;;;;;;5.00;1.15;;;25.90;89.70;;;;;;5081128;28;20068;-72
2021/08/09 08:33:21;;;;;;;3.30;0.90;;;26.10;90.10;;;;;;5082869;28;20048;-72
2021/08/09 08:35:49;;;;;;;5.82;1.35;;;26.10;89.50;;;;;;5083264;28;20040;-72
2021/08/09 08:38:18;;;;;;;6.57;0.98;;;26.30;89.40;;;;;;5084292;28;20059;-72
2021/08/09 08:40:48;;;;;;;6.95;1.30;;;26.40;88.90;;;;;;5078527;28;20082;-72
2021/08/09 08:43:22;;;;;;;3.13;1.05;;;26.60;88.40;;;;;;5082194;28;20044;-72
2021/08/09 08:45:56;;;;;;;5.43;1.00;;;26.80;88.60;;;;;;5082530;28;20150;-72
2021/08/09 08:48:27;;;;;;;3.90;1.35;;;26.90;88.40;;;;;;5082870;28;20075;-72
2021/08/09 08:51:16;;;;;;;4.38;1.10;;;27.00;87.90;;;;;;5076811;28;20044;-73
2021/08/09 08:53:45;;;;;;;4.88;1.05;;;27.00;87.70;;;;;;5095947;28;20622;-73
2021/08/09 08:56:13;;;;;;;2.28;0.75;;;26.90;87.90;;;;;;5079145;28;20045;-72
2021/08/09 08:58:43;;;;;;;6.18;1.33;;;27.20;87.30;;;;;;5062820;28;20033;-72
2021/08/09 09:01:11;;;;;;;2.03;1.02;;;27.20;87.70;;;;;;5080700;28;20060;-73
2021/08/09 09:03:40;;;;;;;4.85;1.10;;;27.20;86.60;;;;;;5082464;28;20565;-72
2021/08/09 09:06:09;;;;;;;3.88;1.02;;;27.30;87.20;;;;;;5071779;28;20043;-72
2021/08/09 09:08:42;;;;;;;2.15;1.00;;;27.40;87.00;;;;;;5076191;28;20047;-72
2021/08/09 09:11:12;;;;;;;1.42;0.88;;;27.40;87.20;;;;;;5080405;28;20060;-72
2021/08/09 09:13:55;;;;;;;3.28;1.08;;;27.40;87.20;;;;;;5083692;28;20063;-72
2021/08/09 09:16:24;;;;;;;3.65;0.82;;;27.60;86.70;;;;;;5080937;28;20045;-73
2021/08/09 09:18:58;;;;;;;2.90;0.93;;;27.70;86.30;;;;;;5081485;28;20048;-72
2021/08/09 09:21:29;;;;;;;5.50;1.27;;;27.80;86.30;;;;;;5075112;28;20094;-72
2021/08/09 09:24:10;;;;;;;4.10;1.20;;;28.00;86.10;;;;;;5079226;28;20040;-72
2021/08/09 09:26:41;;;;;;;5.72;1.25;;;28.10;86.50;;;;;;5082124;28;20060;-72
2021/08/09 09:29:12;;;;;;;6.00;1.50;;;28.30;86.80;;;;;;5083460;28;20517;-72
2021/08/09 09:31:42;;;;;;;4.22;1.38;;;28.30;86.80;;;;;;5079593;28;20063;-72
2021/08/09 09:34:12;;;;;;;5.32;1.70;;;28.40;88.00;;;;;;5080722;28;20109;-72
2021/08/09 09:36:52;;;;;;;4.43;1.48;;;28.30;87.90;;;;;;5082299;28;20040;-72
2021/08/09 09:39:27;;;;;;;2.92;1.40;;;28.40;87.90;;;;;;5082557;28;20504;-72
2021/08/09 09:41:56;;;;;;;8.30;2.00;;;28.40;89.00;;;;;;5079801;28;20101;-72
2021/08/09 09:44:28;;;;;;;4.30;1.60;;;28.50;89.00;;;;;;5085199;28;20115;-72
2021/08/09 09:47:24;;;;;;;4.28;1.27;;;28.60;88.90;;;;;;5079792;28;20036;-72
2021/08/09 09:49:54;;;;;;;6.82;1.63;;;28.70;89.80;;;;;;5078818;28;20055;-72
2021/08/09 09:52:36;;;;;;;2.75;1.45;;;28.80;89.60;;;;;;5082926;28;20243;-72
2021/08/09 09:55:07;;;;;;;5.68;1.55;;;29.00;89.20;;;;;;5081421;28;20105;-72
2021/08/09 09:57:36;;;;;;;4.10;1.42;;;28.90;89.20;;;;;;5079775;28;20071;-72
2021/08/09 10:00:08;;;;;;;4.40;1.63;;;29.10;89.60;;;;;;5077028;28;21318;-73
2021/08/09 10:02:43;;;;;;;4.53;1.48;;;29.10;89.50;;;;;;5080244;28;20098;-72
2021/08/09 10:05:13;;;;;;;5.07;1.70;;;29.10;89.50;;;;;;5079610;28;20149;-72
2021/08/09 10:07:45;;;;;;;3.78;1.70;;;29.20;89.90;;;;;;5080026;28;20043;-72
2021/08/09 10:10:14;;;;;;;6.38;2.00;;;29.40;89.50;;;;;;5060283;28;20123;-72
2021/08/09 10:12:47;;;;;;;5.82;1.55;;;29.40;90.30;;;;;;5081435;28;20094;-72
2021/08/09 10:15:19;;;;;;;5.15;1.65;;;29.50;90.10;;;;;;5081718;28;20055;-72
2021/08/09 10:17:49;;;;;;;6.72;1.75;;;29.50;90.10;;;;;;5085012;28;20619;-73
2021/08/09 10:20:18;;;;;;;5.30;2.22;;;29.50;90.10;;;;;;5081736;28;20046;-72
2021/08/09 10:22:57;;;;;;;4.53;2.10;;;29.70;90.50;;;;;;5081538;28;20036;-72
2021/08/09 10:25:47;;;;;;;6.93;2.20;;;29.90;90.10;;;;;;5082155;28;20040;-72
2021/08/09 10:28:16;;;;;;;5.28;2.20;;;29.90;90.50;;;;;;5074008;28;20041;-72
2021/08/09 10:30:46;;;;;;;4.90;2.17;;;30.00;90.30;;;;;;5080333;28;20102;-72
2021/08/09 10:33:48;;;;;;;4.38;2.30;;;30.00;90.00;;;;;;5079112;28;20044;-72
2021/08/09 10:36:20;;;;;;;7.18;2.50;;;30.20;90.50;;;;;;5077347;28;20055;-71
2021/08/09 10:38:52;;;;;;;5.38;2.10;;;30.30;90.40;;;;;;5079364;28;20048;-71
2021/08/09 10:41:52;;;;;;;6.68;2.33;;;30.40;90.30;;;;;;5079020;28;20362;-72
2021/08/09 10:44:25;;;;;;;8.50;2.10;;;30.50;90.40;;;;;;5080015;28;20121;-72
2021/08/09 10:46:56;;;;;;;7.03;2.40;;;30.70;90.30;;;;;;5079299;28;20067;-72
2021/08/09 10:49:56;;;;;;;4.95;1.88;;;30.90;89.90;;;;;;5080249;28;20516;-72
2021/08/09 10:52:41;;;;;;;7.05;2.10;;;30.90;89.80;;;;;;5077808;28;20044;-72
2021/08/09 10:55:43;;;;;;;4.72;1.95;;;30.90;89.60;;;;;;5078447;28;20084;-72
2021/08/09 10:58:49;;;;;;;7.70;2.38;;;31.10;88.90;;;;;;5080710;28;20043;-72
2021/08/09 11:01:19;;;;;;;5.45;2.13;;;31.20;88.90;;;;;;5079543;28;20070;-72
2021/08/09 11:04:13;;;;;;;7.18;2.30;;;31.30;88.70;;;;;;5094480;28;20041;-71
2021/08/09 11:06:53;;;;;;;5.82;2.67;;;31.20;88.10;;;;;;5075751;28;20052;-71
2021/08/09 11:09:42;;;;;;;7.10;2.78;;;31.30;88.70;;;;;;5075151;28;20224;-71
2021/08/09 11:12:13;;;;;;;5.30;2.13;;;31.40;87.50;;;;;;5062179;28;20040;-71
2021/08/09 11:15:13;;;;;;;6.22;2.45;;;31.50;87.30;;;;;;5083573;28;20040;-71
2021/08/09 11:17:48;;;;;;;5.47;2.00;;;31.50;86.90;;;;;;5078740;28;20064;-72
2021/08/09 11:20:22;;;;;;;5.80;1.95;;;31.50;86.60;;;;;;5080274;28;20048;-72
2021/08/09 11:23:03;;;;;;;4.20;2.58;;;31.70;86.70;;;;;;5073546;28;20130;-71
2021/08/09 11:25:34;;;;;;;7.72;2.70;;;31.90;85.80;;;;;;5079371;28;20054;-71
2021/08/09 11:28:06;;;;;;;5.15;2.20;;;32.00;85.30;;;;;;5077111;28;20294;-72
2021/08/09 11:30:37;;;;;;;6.78;1.90;;;31.90;85.40;;;;;;5078717;28;20043;-71
2021/08/09 11:33:08;;;;;;;3.92;2.22;;;32.10;84.90;;;;;;5078110;28;20591;-73
2021/08/09 11:35:48;;;;;;;4.45;2.17;;;32.10;84.60;;;;;;5080385;28;20044;-72
2021/08/09 11:38:18;;;;;;;6.38;2.30;;;32.10;84.50;;;;;;5074776;28;20052;-72
2021/08/09 11:40:48;;;;;;;6.20;2.40;;;32.20;84.60;;;;;;5077762;28;20055;-72
2021/08/09 11:43:22;;;;;;;6.75;2.38;;;32.50;84.70;;;;;;5081970;28;20040;-72
2021/08/09 11:45:52;;;;;;;6.10;2.50;;;32.60;84.00;;;;;;5080000;28;20493;-72
2021/08/09 11:48:28;;;;;;;3.47;2.22;;;32.60;84.30;;;;;;5082685;28;20058;-72
2021/08/09 11:51:02;;;;;;;;;;;32.60;85.20;;;;;;5076419;28;20051;-71
2021/08/09 11:53:47;;;;;;;6.30;2.35;;;32.60;84.10;;;;;;5076938;28;19931;-72
2021/08/09 11:56:18;;;;;;;6.63;2.47;;;32.60;84.00;;;;;;5079831;28;20052;-72
2021/08/09 11:58:47;;;;;;;7.20;2.42;;;32.60;84.60;;;;;;5078817;28;20533;-72
2021/08/09 12:01:21;;;;;;;4.93;2.08;;;32.60;84.40;;;;;;5069148;28;20051;-72
2021/08/09 12:04:08;;;;;;;4.97;2.63;;;32.80;83.40;;;;;;5072538;28;20109;-72
2021/08/09 12:06:48;;;;;;;;;;;32.70;83.70;;;;;;5072202;28;20646;-72
2021/08/09 12:09:17;;;;;;;7.30;2.38;;;32.70;83.80;;;;;;5079705;28;20373;-73
2021/08/09 12:11:56;;;;;;;5.50;2.20;;;32.70;84.10;;;;;;5082919;28;20119;-72
2021/08/09 12:14:25;;;;;;;4.43;2.20;;;32.70;84.60;;;;;;5069139;28;20044;-71
2021/08/09 12:16:55;;;;;;;5.47;2.50;;;32.90;84.00;;;;;;5081636;28;20036;-72
2021/08/09 12:19:36;;;;;;;9.48;2.38;;;32.80;83.60;;;;;;5078632;28;20068;-72
2021/08/09 12:22:11;;;;;;;7.20;2.58;;;33.00;83.80;;;;;;5083225;28;20486;-72
2021/08/09 12:24:40;;;;;;;5.90;2.42;;;33.20;83.20;;;;;;5070722;28;20178;-72
2021/08/09 12:27:19;;;;;;;6.32;2.42;;;33.30;83.00;;;;;;5079490;28;20047;-72
2021/08/09 12:30:02;;;;;;;8.70;2.45;;;33.40;82.70;;;;;;5072206;28;20044;-72
2021/08/09 12:32:31;;;;;;;5.38;2.47;;;33.40;83.20;;;;;;5074922;28;20044;-72
2021/08/09 12:35:00;;;;;;;5.57;2.38;;;33.40;83.60;;;;;;5076720;28;20665;-72
2021/08/09 12:37:30;;;;;;;6.82;2.30;;;33.50;83.40;;;;;;5077280;28;20052;-73
2021/08/09 12:40:10;;;;;;;4.63;2.53;;;33.60;83.50;;;;;;5079786;28;20052;-72
2021/08/09 12:42:40;;;;;;;7.47;2.38;;;33.50;83.70;;;;;;5078123;28;20060;-72
2021/08/09 12:45:09;;;;;;;4.90;2.17;;;33.60;84.30;;;;;;5076680;28;20123;-72
2021/08/09 12:47:38;;;;;;;5.63;2.58;;;33.70;81.30;;;;;;5078149;28;20077;-72
2021/08/09 12:50:08;;;;;;;5.97;2.75;;;33.70;82.00;;;;;;5080562;28;20040;-72
2021/08/09 12:52:38;;;;;;;7.10;2.80;;;33.70;83.60;;;;;;5079551;28;20052;-72
2021/08/09 12:55:07;;;;;;;6.68;2.63;;;33.70;84.30;;;;;;5077679;28;20054;-72
2021/08/09 12:57:38;;;;;;;6.65;2.88;;;33.70;85.30;;;;;;5081895;28;20448;-72
2021/08/09 13:00:08;;;;;;;9.27;3.25;;;33.70;85.70;;;;;;5081560;28;20505;-72
2021/08/09 13:02:38;;;;;;;6.63;2.78;;;33.80;85.30;;;;;;5082248;28;20051;-72
2021/08/09 13:05:07;;;;;;;6.78;2.95;;;33.80;85.80;;;;;;5082706;28;20043;-72
2021/08/09 13:07:37;;;;;;;5.45;2.90;;;33.90;85.50;;;;;;5081682;28;20044;-72
2021/08/09 13:10:07;;;;;;;6.53;3.25;;;33.80;85.70;;;;;;5083616;28;20119;-71
2021/08/09 13:12:35;;;;;;;9.73;3.75;;;33.60;85.90;;;;;;5082039;28;20046;-72
2021/08/09 13:15:05;;;;;;;4.40;2.95;;;33.50;86.50;;;;;;5082348;28;20059;-72